Muscatine, IA

6:36 AM CST on February 24, 2017 (GMT -0600)
Near MCC | | Change Station
Active Advisory: Flood Watch Active Notice: Flood Watch

Elev 620 ft 41.44 °N, 91.03 °W | Updated 9 minutes ago

Overcast
Overcast
38.1 °F
Feels Like 33 °F
N
7.3
Wind Variable Wind from NNE

Today
High -- | Low -- °F
--% Chance of Precip.
Yesterday
High -- | Low -- °F
Precip. -- in
Pressure 29.44 in
Visibility 10.0 miles
Clouds Overcast 500 ft
Windchill 33 °F
Dew Point 37 °F
Humidity 96%
Rainfall 0.00 in
Snow Depth Not available.
6:45 AM 5:49 PM
Waning Crescent, 5% visible
METAR KMUT 241215Z AUTO 02010KT 10SM OVC005 04/03 A2944 RMK AO2
Pressure 29.44 in
Visibility 10.0 miles
Clouds Overcast 500 ft
Windchill 33 °F
Dew Point 37 °F
Humidity 96%
Rainfall 0.00 in
Snow Depth Not available.
6:45 AM 5:49 PM
Waning Crescent, 5% visible
METAR KMUT 241215Z AUTO 02010KT 10SM OVC005 04/03 A2944 RMK AO2

Get Your Daily Forecast Email!

Thanks for signing up!

Be on the lookout for a verification email in your inbox.

You'll start receiving the daily forecast at 8 AM.

×

10-Day Weather Forecast

Almanac

Astronomy

Feb. 24, 2017 Rise Set
Actual Time
Civil Twilight
Nautical Twilight
Astronomical Twilight
Moon
Length of Visible Light
Length of Day
Tomorrow will be .
, % of the Moon is Illuminated

Today's Extremes

State Highs State Lows

Community

WunderPhotos

Upload Photos

1,962,540 photos uploaded!

WunderBlog® & News

Nearby

Air Quality

  Air Quality AQ Index Pollutant
Not available.

Snow Depth

Station Depth Elevation

Earthquake Activity

City Distance Mag. Time & Date
Minimum magnitude displayed is 2.5.

Coastal Water Temperatures

Place Temperature

Stations

Nearby Weather Stations

Station Location Temp. Windchill Dew Point Humidity Wind Precip. Elev Updated Type
                   

Watches & Warnings

Flood Watch
Issued: 4:23 AM CST Feb. 24, 2017 – National Weather Service

The Flood Watch continues for
the Cedar River near Conesville
* until further notice.
* At 4:00 am Friday the stage was 10.6 feet.
* Flood stage is 13.0 feet.
* Minor flooding is possible.
* Forecast... rise above flood stage Saturday evening... and continue
rising to 14.8 feet Thursday morning.
* This forecast is based on routed flow from upstream in combination
with forecast rainfall. Consequently there is limited confidence
in the river reaching flood stage.


Lat... Lon 4164 9121 4135 9139 4129 9132 4157 9106
      4170 9110